sensor_id;sensor_type;location;lat;lon;timestamp;P1;durP1;ratioP1;P2;durP2;ratioP2
10162;SDS011;5123;52.556;13.384;2023-08-21T00:02:14;14.23;;;10.07;;
10162;SDS011;5123;52.556;13.384;2023-08-21T00:04:46;11.03;;;9.67;;
10162;SDS011;5123;52.556;13.384;2023-08-21T00:07:20;10.73;;;9.20;;
10162;SDS011;5123;52.556;13.384;2023-08-21T00:09:58;11.10;;;10.00;;
10162;SDS011;5123;52.556;13.384;2023-08-21T00:12:33;12.03;;;10.73;;
10162;SDS011;5123;52.556;13.384;2023-08-21T00:15:07;14.20;;;10.40;;
10162;SDS011;5123;52.556;13.384;2023-08-21T00:17:41;12.73;;;10.00;;
10162;SDS011;5123;52.556;13.384;2023-08-21T00:20:14;13.27;;;10.53;;
10162;SDS011;5123;52.556;13.384;2023-08-21T00:22:48;12.37;;;10.30;;
10162;SDS011;5123;52.556;13.384;2023-08-21T00:25:21;11.47;;;9.87;;
10162;SDS011;5123;52.556;13.384;2023-08-21T00:27:54;10.77;;;9.67;;
10162;SDS011;5123;52.556;13.384;2023-08-21T00:30:26;11.37;;;10.20;;
10162;SDS011;5123;52.556;13.384;2023-08-21T00:32:59;12.33;;;9.70;;
10162;SDS011;5123;52.556;13.384;2023-08-21T00:35:32;11.13;;;9.77;;
10162;SDS011;5123;52.556;13.384;2023-08-21T00:38:06;10.40;;;9.33;;
10162;SDS011;5123;52.556;13.384;2023-08-21T00:40:38;14.40;;;10.03;;
10162;SDS011;5123;52.556;13.384;2023-08-21T00:43:11;11.50;;;9.70;;
10162;SDS011;5123;52.556;13.384;2023-08-21T00:45:45;18.67;;;10.27;;
10162;SDS011;5123;52.556;13.384;2023-08-21T00:48:24;11.07;;;9.97;;
10162;SDS011;5123;52.556;13.384;2023-08-21T00:50:57;12.97;;;10.40;;
10162;SDS011;5123;52.556;13.384;2023-08-21T00:53:33;11.57;;;10.00;;
10162;SDS011;5123;52.556;13.384;2023-08-21T00:56:07;11.20;;;9.73;;
10162;SDS011;5123;52.556;13.384;2023-08-21T00:58:40;13.17;;;10.47;;
10162;SDS011;5123;52.556;13.384;2023-08-21T01:01:12;10.87;;;9.23;;
10162;SDS011;5123;52.556;13.384;2023-08-21T01:03:51;11.27;;;9.27;;
10162;SDS011;5123;52.556;13.384;2023-08-21T01:06:23;12.77;;;9.93;;
10162;SDS011;5123;52.556;13.384;2023-08-21T01:08:59;12.67;;;10.60;;
10162;SDS011;5123;52.556;13.384;2023-08-21T01:11:34;10.73;;;9.73;;
10162;SDS011;5123;52.556;13.384;2023-08-21T01:14:09;12.67;;;9.83;;
10162;SDS011;5123;52.556;13.384;2023-08-21T01:16:43;12.70;;;9.57;;
10162;SDS011;5123;52.556;13.384;2023-08-21T01:19:19;11.37;;;10.17;;
10162;SDS011;5123;52.556;13.384;2023-08-21T01:21:52;13.10;;;10.73;;
10162;SDS011;5123;52.556;13.384;2023-08-21T01:24:26;13.83;;;9.80;;
10162;SDS011;5123;52.556;13.384;2023-08-21T01:27:01;13.33;;;10.23;;
10162;SDS011;5123;52.556;13.384;2023-08-21T01:29:34;12.63;;;10.07;;
10162;SDS011;5123;52.556;13.384;2023-08-21T01:32:10;11.33;;;9.40;;
10162;SDS011;5123;52.556;13.384;2023-08-21T01:34:45;12.10;;;10.13;;
10162;SDS011;5123;52.556;13.384;2023-08-21T01:37:18;12.37;;;9.67;;
10162;SDS011;5123;52.556;13.384;2023-08-21T01:39:53;11.23;;;9.60;;
10162;SDS011;5123;52.556;13.384;2023-08-21T01:42:25;10.70;;;9.57;;
10162;SDS011;5123;52.556;13.384;2023-08-21T01:44:58;10.00;;;9.00;;
10162;SDS011;5123;52.556;13.384;2023-08-21T01:47:30;18.00;;;10.90;;
10162;SDS011;5123;52.556;13.384;2023-08-21T01:50:03;13.87;;;9.33;;
10162;SDS011;5123;52.556;13.384;2023-08-21T01:52:37;9.77;;;8.87;;
10162;SDS011;5123;52.556;13.384;2023-08-21T01:55:12;10.60;;;9.50;;
10162;SDS011;5123;52.556;13.384;2023-08-21T01:57:47;10.50;;;8.73;;
10162;SDS011;5123;52.556;13.384;2023-08-21T02:00:20;12.43;;;9.20;;
10162;SDS011;5123;52.556;13.384;2023-08-21T02:02:52;11.20;;;9.60;;
10162;SDS011;5123;52.556;13.384;2023-08-21T02:05:25;12.70;;;9.60;;
10162;SDS011;5123;52.556;13.384;2023-08-21T02:08:02;12.17;;;9.27;;
10162;SDS011;5123;52.556;13.384;2023-08-21T02:10:36;10.90;;;9.80;;
10162;SDS011;5123;52.556;13.384;2023-08-21T02:13:10;10.87;;;9.77;;
10162;SDS011;5123;52.556;13.384;2023-08-21T02:15:43;12.87;;;9.63;;
10162;SDS011;5123;52.556;13.384;2023-08-21T02:18:15;10.23;;;9.17;;
10162;SDS011;5123;52.556;13.384;2023-08-21T02:20:48;9.90;;;8.50;;
10162;SDS011;5123;52.556;13.384;2023-08-21T02:23:21;9.37;;;8.57;;
10162;SDS011;5123;52.556;13.384;2023-08-21T02:25:56;9.87;;;8.87;;
10162;SDS011;5123;52.556;13.384;2023-08-21T02:28:29;10.70;;;8.93;;
10162;SDS011;5123;52.556;13.384;2023-08-21T02:31:02;11.50;;;9.13;;
10162;SDS011;5123;52.556;13.384;2023-08-21T02:33:34;9.50;;;8.57;;
10162;SDS011;5123;52.556;13.384;2023-08-21T02:36:07;8.80;;;7.90;;
10162;SDS011;5123;52.556;13.384;2023-08-21T02:38:40;11.43;;;8.90;;
10162;SDS011;5123;52.556;13.384;2023-08-21T02:41:16;9.43;;;8.33;;
10162;SDS011;5123;52.556;13.384;2023-08-21T02:43:49;11.07;;;8.43;;
10162;SDS011;5123;52.556;13.384;2023-08-21T02:46:25;10.57;;;8.43;;
10162;SDS011;5123;52.556;13.384;2023-08-21T02:48:57;8.70;;;7.87;;
10162;SDS011;5123;52.556;13.384;2023-08-21T02:51:30;9.97;;;8.30;;
10162;SDS011;5123;52.556;13.384;2023-08-21T02:54:02;8.97;;;8.13;;
10162;SDS011;5123;52.556;13.384;2023-08-21T02:56:36;9.23;;;8.20;;
10162;SDS011;5123;52.556;13.384;2023-08-21T02:59:09;11.17;;;8.10;;
10162;SDS011;5123;52.556;13.384;2023-08-21T03:01:41;7.87;;;7.17;;
10162;SDS011;5123;52.556;13.384;2023-08-21T03:04:14;8.17;;;7.10;;
10162;SDS011;5123;52.556;13.384;2023-08-21T03:06:47;7.93;;;6.70;;
10162;SDS011;5123;52.556;13.384;2023-08-21T03:09:22;9.57;;;7.70;;
10162;SDS011;5123;52.556;13.384;2023-08-21T03:11:56;8.87;;;7.33;;
10162;SDS011;5123;52.556;13.384;2023-08-21T03:14:28;10.10;;;7.33;;
10162;SDS011;5123;52.556;13.384;2023-08-21T03:17:01;10.83;;;7.63;;
10162;SDS011;5123;52.556;13.384;2023-08-21T03:19:34;8.20;;;7.40;;
10162;SDS011;5123;52.556;13.384;2023-08-21T03:22:07;7.43;;;6.73;;
10162;SDS011;5123;52.556;13.384;2023-08-21T03:24:39;11.47;;;7.40;;
10162;SDS011;5123;52.556;13.384;2023-08-21T03:27:15;7.77;;;6.73;;
10162;SDS011;5123;52.556;13.384;2023-08-21T03:29:47;8.43;;;6.90;;
10162;SDS011;5123;52.556;13.384;2023-08-21T03:32:20;8.93;;;7.37;;
10162;SDS011;5123;52.556;13.384;2023-08-21T03:34:53;8.70;;;7.80;;
10162;SDS011;5123;52.556;13.384;2023-08-21T03:37:25;8.90;;;7.23;;
10162;SDS011;5123;52.556;13.384;2023-08-21T03:39:58;8.47;;;7.50;;
10162;SDS011;5123;52.556;13.384;2023-08-21T03:42:32;11.60;;;7.40;;
10162;SDS011;5123;52.556;13.384;2023-08-21T03:45:05;7.87;;;7.07;;
10162;SDS011;5123;52.556;13.384;2023-08-21T03:47:38;9.67;;;7.30;;
10162;SDS011;5123;52.556;13.384;2023-08-21T03:50:11;9.30;;;7.37;;
10162;SDS011;5123;52.556;13.384;2023-08-21T03:52:43;10.00;;;8.03;;
10162;SDS011;5123;52.556;13.384;2023-08-21T03:55:19;7.80;;;7.03;;
10162;SDS011;5123;52.556;13.384;2023-08-21T03:57:53;9.00;;;7.93;;
10162;SDS011;5123;52.556;13.384;2023-08-21T04:00:25;9.90;;;7.53;;
10162;SDS011;5123;52.556;13.384;2023-08-21T04:02:58;7.70;;;6.87;;
10162;SDS011;5123;52.556;13.384;2023-08-21T04:05:31;9.43;;;7.90;;
10162;SDS011;5123;52.556;13.384;2023-08-21T04:08:04;8.53;;;7.73;;
10162;SDS011;5123;52.556;13.384;2023-08-21T04:10:39;7.93;;;7.13;;
10162;SDS011;5123;52.556;13.384;2023-08-21T04:13:14;10.07;;;7.67;;
10162;SDS011;5123;52.556;13.384;2023-08-21T04:15:48;10.40;;;7.90;;
10162;SDS011;5123;52.556;13.384;2023-08-21T04:18:21;8.37;;;7.50;;
10162;SDS011;5123;52.556;13.384;2023-08-21T04:21:11;8.33;;;7.53;;
10162;SDS011;5123;52.556;13.384;2023-08-21T04:23:45;9.27;;;7.83;;
10162;SDS011;5123;52.556;13.384;2023-08-21T04:26:20;8.30;;;7.50;;
10162;SDS011;5123;52.556;13.384;2023-08-21T04:28:56;8.93;;;7.70;;
10162;SDS011;5123;52.556;13.384;2023-08-21T04:31:28;7.97;;;6.87;;
10162;SDS011;5123;52.556;13.384;2023-08-21T04:34:01;9.47;;;6.97;;
10162;SDS011;5123;52.556;13.384;2023-08-21T04:36:35;8.30;;;7.33;;
10162;SDS011;5123;52.556;13.384;2023-08-21T04:39:07;8.00;;;7.20;;
10162;SDS011;5123;52.556;13.384;2023-08-21T04:41:42;9.33;;;7.40;;
10162;SDS011;5123;52.556;13.384;2023-08-21T04:44:16;7.87;;;7.03;;
10162;SDS011;5123;52.556;13.384;2023-08-21T04:46:51;8.60;;;7.67;;
10162;SDS011;5123;52.556;13.384;2023-08-21T04:49:26;8.30;;;7.50;;
10162;SDS011;5123;52.556;13.384;2023-08-21T04:51:58;14.00;;;7.80;;
10162;SDS011;5123;52.556;13.384;2023-08-21T04:54:31;9.93;;;8.00;;
10162;SDS011;5123;52.556;13.384;2023-08-21T04:57:04;9.63;;;8.50;;
10162;SDS011;5123;52.556;13.384;2023-08-21T04:59:38;9.67;;;7.87;;
10162;SDS011;5123;52.556;13.384;2023-08-21T05:02:11;10.10;;;9.03;;
10162;SDS011;5123;52.556;13.384;2023-08-21T05:04:43;9.63;;;8.60;;
10162;SDS011;5123;52.556;13.384;2023-08-21T05:07:19;10.23;;;9.13;;
10162;SDS011;5123;52.556;13.384;2023-08-21T05:09:52;13.67;;;9.27;;
10162;SDS011;5123;52.556;13.384;2023-08-21T05:12:28;12.23;;;10.00;;
10162;SDS011;5123;52.556;13.384;2023-08-21T05:15:02;11.73;;;9.53;;
10162;SDS011;5123;52.556;13.384;2023-08-21T05:17:34;12.77;;;9.73;;
10162;SDS011;5123;52.556;13.384;2023-08-21T05:20:10;12.87;;;9.57;;
10162;SDS011;5123;52.556;13.384;2023-08-21T05:22:46;12.97;;;9.60;;
10162;SDS011;5123;52.556;13.384;2023-08-21T05:25:19;13.10;;;9.93;;
10162;SDS011;5123;52.556;13.384;2023-08-21T05:27:52;12.90;;;9.87;;
10162;SDS011;5123;52.556;13.384;2023-08-21T05:30:26;10.53;;;9.40;;
10162;SDS011;5123;52.556;13.384;2023-08-21T05:32:58;12.57;;;9.60;;
10162;SDS011;5123;52.556;13.384;2023-08-21T05:35:32;11.17;;;10.00;;
10162;SDS011;5123;52.556;13.384;2023-08-21T05:38:05;9.87;;;8.60;;
10162;SDS011;5123;52.556;13.384;2023-08-21T05:40:39;12.70;;;9.90;;
10162;SDS011;5123;52.556;13.384;2023-08-21T05:43:12;12.90;;;9.03;;
10162;SDS011;5123;52.556;13.384;2023-08-21T05:45:46;11.23;;;9.60;;
10162;SDS011;5123;52.556;13.384;2023-08-21T05:48:21;12.43;;;9.50;;
10162;SDS011;5123;52.556;13.384;2023-08-21T05:50:54;10.03;;;9.13;;
10162;SDS011;5123;52.556;13.384;2023-08-21T05:53:29;12.40;;;8.97;;
10162;SDS011;5123;52.556;13.384;2023-08-21T05:56:02;11.83;;;9.73;;
10162;SDS011;5123;52.556;13.384;2023-08-21T05:58:35;9.53;;;8.53;;
10162;SDS011;5123;52.556;13.384;2023-08-21T06:01:12;10.67;;;9.57;;
10162;SDS011;5123;52.556;13.384;2023-08-21T06:03:48;10.70;;;9.63;;
10162;SDS011;5123;52.556;13.384;2023-08-21T06:06:23;12.00;;;9.80;;
10162;SDS011;5123;52.556;13.384;2023-08-21T06:08:55;10.10;;;9.00;;
10162;SDS011;5123;52.556;13.384;2023-08-21T06:11:29;10.77;;;9.67;;
10162;SDS011;5123;52.556;13.384;2023-08-21T06:14:05;11.60;;;9.10;;
10162;SDS011;5123;52.556;13.384;2023-08-21T06:16:39;10.40;;;9.40;;
10162;SDS011;5123;52.556;13.384;2023-08-21T06:19:15;11.93;;;9.40;;
10162;SDS011;5123;52.556;13.384;2023-08-21T06:21:47;11.07;;;9.20;;
10162;SDS011;5123;52.556;13.384;2023-08-21T06:24:20;11.17;;;9.27;;
10162;SDS011;5123;52.556;13.384;2023-08-21T06:26:58;13.30;;;9.10;;
10162;SDS011;5123;52.556;13.384;2023-08-21T06:29:31;12.37;;;9.43;;
10162;SDS011;5123;52.556;13.384;2023-08-21T06:32:05;10.93;;;8.97;;
10162;SDS011;5123;52.556;13.384;2023-08-21T06:34:37;11.13;;;9.30;;
10162;SDS011;5123;52.556;13.384;2023-08-21T06:37:10;13.23;;;9.40;;
10162;SDS011;5123;52.556;13.384;2023-08-21T06:39:44;11.07;;;9.97;;
10162;SDS011;5123;52.556;13.384;2023-08-21T06:42:17;13.57;;;9.57;;
10162;SDS011;5123;52.556;13.384;2023-08-21T06:44:49;12.00;;;9.63;;
10162;SDS011;5123;52.556;13.384;2023-08-21T06:47:23;10.20;;;9.30;;
10162;SDS011;5123;52.556;13.384;2023-08-21T06:49:56;12.47;;;10.07;;
10162;SDS011;5123;52.556;13.384;2023-08-21T06:52:29;11.13;;;9.83;;
10162;SDS011;5123;52.556;13.384;2023-08-21T06:55:01;11.00;;;9.37;;
10162;SDS011;5123;52.556;13.384;2023-08-21T06:57:34;9.83;;;8.83;;
10162;SDS011;5123;52.556;13.384;2023-08-21T07:00:09;9.83;;;8.83;;
10162;SDS011;5123;52.556;13.384;2023-08-21T07:02:43;10.40;;;8.93;;
10162;SDS011;5123;52.556;13.384;2023-08-21T07:05:16;10.80;;;8.60;;
10162;SDS011;5123;52.556;13.384;2023-08-21T07:07:52;8.83;;;7.93;;
10162;SDS011;5123;52.556;13.384;2023-08-21T07:10:26;9.57;;;8.67;;
10162;SDS011;5123;52.556;13.384;2023-08-21T07:12:59;12.30;;;8.70;;
10162;SDS011;5123;52.556;13.384;2023-08-21T07:15:32;8.57;;;7.77;;
10162;SDS011;5123;52.556;13.384;2023-08-21T07:18:06;10.00;;;8.00;;
10162;SDS011;5123;52.556;13.384;2023-08-21T07:20:45;10.53;;;7.67;;
10162;SDS011;5123;52.556;13.384;2023-08-21T07:23:18;10.67;;;7.80;;
10162;SDS011;5123;52.556;13.384;2023-08-21T07:25:53;10.63;;;8.47;;
10162;SDS011;5123;52.556;13.384;2023-08-21T07:28:26;8.90;;;8.00;;
10162;SDS011;5123;52.556;13.384;2023-08-21T07:30:59;8.33;;;7.53;;
10162;SDS011;5123;52.556;13.384;2023-08-21T07:33:36;13.27;;;7.60;;
10162;SDS011;5123;52.556;13.384;2023-08-21T07:36:09;8.10;;;7.40;;
10162;SDS011;5123;52.556;13.384;2023-08-21T07:38:48;8.47;;;7.40;;
10162;SDS011;5123;52.556;13.384;2023-08-21T07:41:21;9.17;;;8.20;;
10162;SDS011;5123;52.556;13.384;2023-08-21T07:43:59;7.07;;;6.37;;
10162;SDS011;5123;52.556;13.384;2023-08-21T07:46:32;7.00;;;6.30;;
10162;SDS011;5123;52.556;13.384;2023-08-21T07:49:06;8.70;;;5.93;;
10162;SDS011;5123;52.556;13.384;2023-08-21T07:51:39;7.33;;;4.73;;
10162;SDS011;5123;52.556;13.384;2023-08-21T07:54:14;10.67;;;4.87;;
10162;SDS011;5123;52.556;13.384;2023-08-21T07:56:48;5.97;;;4.40;;
10162;SDS011;5123;52.556;13.384;2023-08-21T07:59:21;7.17;;;4.77;;
10162;SDS011;5123;52.556;13.384;2023-08-21T08:01:54;10.10;;;4.50;;
10162;SDS011;5123;52.556;13.384;2023-08-21T08:04:28;6.87;;;5.33;;
10162;SDS011;5123;52.556;13.384;2023-08-21T08:07:01;6.80;;;4.53;;
10162;SDS011;5123;52.556;13.384;2023-08-21T08:09:35;4.30;;;3.90;;
10162;SDS011;5123;52.556;13.384;2023-08-21T08:12:10;4.77;;;4.30;;
10162;SDS011;5123;52.556;13.384;2023-08-21T08:14:43;5.00;;;4.47;;
10162;SDS011;5123;52.556;13.384;2023-08-21T08:17:19;7.33;;;4.73;;
10162;SDS011;5123;52.556;13.384;2023-08-21T08:19:53;6.50;;;4.60;;
10162;SDS011;5123;52.556;13.384;2023-08-21T08:22:25;5.53;;;4.97;;
10162;SDS011;5123;52.556;13.384;2023-08-21T08:24:58;5.93;;;4.80;;
10162;SDS011;5123;52.556;13.384;2023-08-21T08:27:31;5.33;;;4.83;;
10162;SDS011;5123;52.556;13.384;2023-08-21T08:30:04;5.00;;;3.17;;
10162;SDS011;5123;52.556;13.384;2023-08-21T08:32:36;3.87;;;2.93;;
10162;SDS011;5123;52.556;13.384;2023-08-21T08:35:16;3.97;;;2.63;;
10162;SDS011;5123;52.556;13.384;2023-08-21T08:37:49;3.90;;;3.00;;
10162;SDS011;5123;52.556;13.384;2023-08-21T08:40:24;3.40;;;2.50;;
10162;SDS011;5123;52.556;13.384;2023-08-21T08:42:56;4.50;;;2.60;;
10162;SDS011;5123;52.556;13.384;2023-08-21T08:45:34;3.47;;;2.00;;
10162;SDS011;5123;52.556;13.384;2023-08-21T08:48:12;3.20;;;1.95;;
10162;SDS011;5123;52.556;13.384;2023-08-21T08:50:46;3.22;;;1.75;;
10162;SDS011;5123;52.556;13.384;2023-08-21T08:53:20;3.72;;;2.13;;
10162;SDS011;5123;52.556;13.384;2023-08-21T08:55:52;3.75;;;3.33;;
10162;SDS011;5123;52.556;13.384;2023-08-21T08:58:25;4.95;;;1.75;;
10162;SDS011;5123;52.556;13.384;2023-08-21T09:00:57;1.88;;;1.60;;
10162;SDS011;5123;52.556;13.384;2023-08-21T09:03:33;3.78;;;1.60;;
10162;SDS011;5123;52.556;13.384;2023-08-21T09:06:07;2.17;;;1.80;;
10162;SDS011;5123;52.556;13.384;2023-08-21T09:08:40;2.67;;;1.52;;
10162;SDS011;5123;52.556;13.384;2023-08-21T09:11:27;3.00;;;1.83;;
10162;SDS011;5123;52.556;13.384;2023-08-21T09:14:00;1.67;;;1.20;;
10162;SDS011;5123;52.556;13.384;2023-08-21T09:16:33;3.63;;;1.70;;
10162;SDS011;5123;52.556;13.384;2023-08-21T09:19:07;3.00;;;2.13;;
10162;SDS011;5123;52.556;13.384;2023-08-21T09:21:41;3.85;;;2.38;;
10162;SDS011;5123;52.556;13.384;2023-08-21T09:24:15;2.92;;;1.75;;
10162;SDS011;5123;52.556;13.384;2023-08-21T09:26:49;3.67;;;1.77;;
10162;SDS011;5123;52.556;13.384;2023-08-21T09:29:21;1.77;;;1.40;;
10162;SDS011;5123;52.556;13.384;2023-08-21T09:31:55;3.90;;;1.60;;
10162;SDS011;5123;52.556;13.384;2023-08-21T09:34:33;4.85;;;1.52;;
10162;SDS011;5123;52.556;13.384;2023-08-21T09:37:07;4.00;;;2.03;;
10162;SDS011;5123;52.556;13.384;2023-08-21T09:39:40;3.08;;;2.20;;
10162;SDS011;5123;52.556;13.384;2023-08-21T09:42:14;2.13;;;1.77;;
10162;SDS011;5123;52.556;13.384;2023-08-21T09:44:47;8.35;;;4.38;;
10162;SDS011;5123;52.556;13.384;2023-08-21T09:47:21;5.57;;;2.30;;
10162;SDS011;5123;52.556;13.384;2023-08-21T09:49:56;6.18;;;1.77;;
10162;SDS011;5123;52.556;13.384;2023-08-21T09:52:30;3.08;;;2.22;;
10162;SDS011;5123;52.556;13.384;2023-08-21T09:55:08;3.95;;;2.00;;
10162;SDS011;5123;52.556;13.384;2023-08-21T09:57:42;6.55;;;2.08;;
10162;SDS011;5123;52.556;13.384;2023-08-21T10:00:14;2.92;;;1.90;;
10162;SDS011;5123;52.556;13.384;2023-08-21T10:02:51;3.38;;;2.00;;
10162;SDS011;5123;52.556;13.384;2023-08-21T10:05:24;3.22;;;1.85;;
10162;SDS011;5123;52.556;13.384;2023-08-21T10:08:01;3.08;;;1.70;;
10162;SDS011;5123;52.556;13.384;2023-08-21T10:10:35;3.55;;;1.75;;
10162;SDS011;5123;52.556;13.384;2023-08-21T10:13:08;3.15;;;2.08;;
10162;SDS011;5123;52.556;13.384;2023-08-21T10:15:41;4.82;;;2.28;;
10162;SDS011;5123;52.556;13.384;2023-08-21T10:18:18;2.95;;;1.83;;
10162;SDS011;5123;52.556;13.384;2023-08-21T10:20:50;4.38;;;1.77;;
10162;SDS011;5123;52.556;13.384;2023-08-21T10:23:27;3.75;;;2.03;;
10162;SDS011;5123;52.556;13.384;2023-08-21T10:26:00;3.55;;;2.13;;
10162;SDS011;5123;52.556;13.384;2023-08-21T10:28:43;5.03;;;1.92;;
10162;SDS011;5123;52.556;13.384;2023-08-21T10:31:25;5.00;;;2.63;;
10162;SDS011;5123;52.556;13.384;2023-08-21T10:34:00;6.90;;;3.90;;
10162;SDS011;5123;52.556;13.384;2023-08-21T10:36:37;4.68;;;2.70;;
10162;SDS011;5123;52.556;13.384;2023-08-21T10:39:14;4.50;;;2.45;;
10162;SDS011;5123;52.556;13.384;2023-08-21T10:41:54;2.92;;;1.70;;
10162;SDS011;5123;52.556;13.384;2023-08-21T10:44:33;3.20;;;1.83;;
10162;SDS011;5123;52.556;13.384;2023-08-21T10:47:15;3.38;;;1.83;;
10162;SDS011;5123;52.556;13.384;2023-08-21T10:49:49;2.42;;;1.52;;
10162;SDS011;5123;52.556;13.384;2023-08-21T10:52:23;1.63;;;1.50;;
10162;SDS011;5123;52.556;13.384;2023-08-21T10:55:01;3.00;;;1.70;;
10162;SDS011;5123;52.556;13.384;2023-08-21T10:57:35;2.75;;;1.70;;
10162;SDS011;5123;52.556;13.384;2023-08-21T11:00:10;2.85;;;1.60;;
10162;SDS011;5123;52.556;13.384;2023-08-21T11:02:48;4.10;;;1.80;;
10162;SDS011;5123;52.556;13.384;2023-08-21T11:05:21;2.83;;;2.00;;
10162;SDS011;5123;52.556;13.384;2023-08-21T11:07:54;5.90;;;1.90;;
10162;SDS011;5123;52.556;13.384;2023-08-21T11:10:29;2.38;;;1.50;;
10162;SDS011;5123;52.556;13.384;2023-08-21T11:13:02;2.42;;;1.48;;
10162;SDS011;5123;52.556;13.384;2023-08-21T11:15:39;2.92;;;1.38;;
10162;SDS011;5123;52.556;13.384;2023-08-21T11:18:15;2.92;;;1.40;;
10162;SDS011;5123;52.556;13.384;2023-08-21T11:20:49;4.47;;;1.80;;
10162;SDS011;5123;52.556;13.384;2023-08-21T11:23:22;2.92;;;1.60;;
10162;SDS011;5123;52.556;13.384;2023-08-21T11:26:09;2.33;;;1.70;;
10162;SDS011;5123;52.556;13.384;2023-08-21T11:28:51;3.35;;;1.65;;
10162;SDS011;5123;52.556;13.384;2023-08-21T11:31:24;6.03;;;1.73;;
10162;SDS011;5123;52.556;13.384;2023-08-21T11:33:59;2.55;;;1.65;;
10162;SDS011;5123;52.556;13.384;2023-08-21T11:36:48;1.92;;;1.35;;
10162;SDS011;5123;52.556;13.384;2023-08-21T11:39:26;2.97;;;1.60;;
10162;SDS011;5123;52.556;13.384;2023-08-21T11:42:03;2.40;;;1.40;;
10162;SDS011;5123;52.556;13.384;2023-08-21T11:44:44;2.88;;;1.73;;
10162;SDS011;5123;52.556;13.384;2023-08-21T11:47:18;2.38;;;1.35;;
10162;SDS011;5123;52.556;13.384;2023-08-21T11:49:51;2.00;;;1.60;;
10162;SDS011;5123;52.556;13.384;2023-08-21T11:52:29;2.33;;;1.35;;
10162;SDS011;5123;52.556;13.384;2023-08-21T11:55:07;3.17;;;1.30;;
10162;SDS011;5123;52.556;13.384;2023-08-21T11:57:47;3.92;;;1.58;;
10162;SDS011;5123;52.556;13.384;2023-08-21T12:00:26;5.03;;;1.65;;
10162;SDS011;5123;52.556;13.384;2023-08-21T12:03:00;2.05;;;1.30;;
10162;SDS011;5123;52.556;13.384;2023-08-21T12:05:34;2.63;;;1.67;;
10162;SDS011;5123;52.556;13.384;2023-08-21T12:08:07;4.57;;;1.60;;
10162;SDS011;5123;52.556;13.384;2023-08-21T12:10:41;3.20;;;1.70;;
10162;SDS011;5123;52.556;13.384;2023-08-21T12:13:25;2.85;;;1.70;;
10162;SDS011;5123;52.556;13.384;2023-08-21T12:16:01;4.25;;;1.88;;
10162;SDS011;5123;52.556;13.384;2023-08-21T12:18:34;3.42;;;1.63;;
10162;SDS011;5123;52.556;13.384;2023-08-21T12:21:07;3.40;;;1.67;;
10162;SDS011;5123;52.556;13.384;2023-08-21T12:23:39;2.78;;;1.70;;
10162;SDS011;5123;52.556;13.384;2023-08-21T12:26:12;3.47;;;1.80;;
10162;SDS011;5123;52.556;13.384;2023-08-21T12:28:54;3.60;;;2.53;;
10162;SDS011;5123;52.556;13.384;2023-08-21T12:31:27;3.45;;;1.88;;
10162;SDS011;5123;52.556;13.384;2023-08-21T12:33:59;3.40;;;2.10;;
10162;SDS011;5123;52.556;13.384;2023-08-21T12:36:33;3.00;;;1.80;;
10162;SDS011;5123;52.556;13.384;2023-08-21T12:39:07;6.20;;;1.92;;
10162;SDS011;5123;52.556;13.384;2023-08-21T12:41:40;4.78;;;1.83;;
10162;SDS011;5123;52.556;13.384;2023-08-21T12:44:14;4.10;;;1.83;;
10162;SDS011;5123;52.556;13.384;2023-08-21T12:46:47;2.47;;;1.52;;
10162;SDS011;5123;52.556;13.384;2023-08-21T12:49:20;5.45;;;1.35;;
10162;SDS011;5123;52.556;13.384;2023-08-21T12:51:52;2.83;;;1.50;;
10162;SDS011;5123;52.556;13.384;2023-08-21T12:54:26;4.60;;;1.85;;
10162;SDS011;5123;52.556;13.384;2023-08-21T12:56:59;1.27;;;1.10;;
10162;SDS011;5123;52.556;13.384;2023-08-21T12:59:33;3.42;;;1.33;;
10162;SDS011;5123;52.556;13.384;2023-08-21T13:02:06;2.15;;;1.20;;
10162;SDS011;5123;52.556;13.384;2023-08-21T13:04:39;2.65;;;1.10;;
10162;SDS011;5123;52.556;13.384;2023-08-21T13:07:11;3.97;;;1.50;;
10162;SDS011;5123;52.556;13.384;2023-08-21T13:09:44;3.13;;;1.52;;
10162;SDS011;5123;52.556;13.384;2023-08-21T13:12:17;3.10;;;1.40;;
10162;SDS011;5123;52.556;13.384;2023-08-21T13:14:53;3.42;;;1.48;;
10162;SDS011;5123;52.556;13.384;2023-08-21T13:17:26;4.72;;;1.67;;
10162;SDS011;5123;52.556;13.384;2023-08-21T13:19:59;2.72;;;1.63;;
10162;SDS011;5123;52.556;13.384;2023-08-21T13:22:43;3.05;;;1.45;;
10162;SDS011;5123;52.556;13.384;2023-08-21T13:25:17;1.90;;;1.27;;
10162;SDS011;5123;52.556;13.384;2023-08-21T13:27:50;2.80;;;1.40;;
10162;SDS011;5123;52.556;13.384;2023-08-21T13:30:33;3.20;;;1.75;;
10162;SDS011;5123;52.556;13.384;2023-08-21T13:33:08;2.75;;;1.20;;
10162;SDS011;5123;52.556;13.384;2023-08-21T13:35:41;3.92;;;1.42;;
10162;SDS011;5123;52.556;13.384;2023-08-21T13:38:13;2.45;;;1.58;;
10162;SDS011;5123;52.556;13.384;2023-08-21T13:40:46;3.42;;;1.30;;
10162;SDS011;5123;52.556;13.384;2023-08-21T13:43:19;2.35;;;1.50;;
10162;SDS011;5123;52.556;13.384;2023-08-21T13:45:57;3.95;;;1.73;;
10162;SDS011;5123;52.556;13.384;2023-08-21T13:48:30;4.18;;;2.00;;
10162;SDS011;5123;52.556;13.384;2023-08-21T13:51:03;2.38;;;1.58;;
10162;SDS011;5123;52.556;13.384;2023-08-21T13:53:35;2.45;;;1.40;;
10162;SDS011;5123;52.556;13.384;2023-08-21T13:56:08;3.10;;;1.35;;
10162;SDS011;5123;52.556;13.384;2023-08-21T13:58:41;3.30;;;1.40;;
10162;SDS011;5123;52.556;13.384;2023-08-21T14:01:15;2.83;;;1.30;;
10162;SDS011;5123;52.556;13.384;2023-08-21T14:03:47;2.67;;;1.50;;
10162;SDS011;5123;52.556;13.384;2023-08-21T14:06:20;2.67;;;1.48;;
10162;SDS011;5123;52.556;13.384;2023-08-21T14:08:53;2.17;;;1.48;;
10162;SDS011;5123;52.556;13.384;2023-08-21T14:11:26;1.98;;;1.10;;
10162;SDS011;5123;52.556;13.384;2023-08-21T14:13:58;1.20;;;1.10;;
10162;SDS011;5123;52.556;13.384;2023-08-21T14:16:32;3.20;;;1.30;;
10162;SDS011;5123;52.556;13.384;2023-08-21T14:19:05;3.33;;;1.40;;
10162;SDS011;5123;52.556;13.384;2023-08-21T14:21:40;2.38;;;1.38;;
10162;SDS011;5123;52.556;13.384;2023-08-21T14:24:13;3.83;;;1.45;;
10162;SDS011;5123;52.556;13.384;2023-08-21T14:26:45;1.85;;;1.15;;
10162;SDS011;5123;52.556;13.384;2023-08-21T14:29:18;1.92;;;1.33;;
10162;SDS011;5123;52.556;13.384;2023-08-21T14:31:52;5.65;;;1.67;;
10162;SDS011;5123;52.556;13.384;2023-08-21T14:34:25;1.27;;;1.00;;
10162;SDS011;5123;52.556;13.384;2023-08-21T14:36:59;2.65;;;1.58;;
10162;SDS011;5123;52.556;13.384;2023-08-21T14:39:31;3.08;;;1.23;;
10162;SDS011;5123;52.556;13.384;2023-08-21T14:42:04;2.08;;;1.00;;
10162;SDS011;5123;52.556;13.384;2023-08-21T14:44:37;2.53;;;1.45;;
10162;SDS011;5123;52.556;13.384;2023-08-21T14:47:11;2.42;;;1.30;;
10162;SDS011;5123;52.556;13.384;2023-08-21T14:49:44;3.47;;;2.97;;
10162;SDS011;5123;52.556;13.384;2023-08-21T14:52:17;2.30;;;1.40;;
10162;SDS011;5123;52.556;13.384;2023-08-21T14:54:50;1.50;;;1.33;;
10162;SDS011;5123;52.556;13.384;2023-08-21T14:57:23;1.85;;;1.20;;
10162;SDS011;5123;52.556;13.384;2023-08-21T14:59:56;1.90;;;1.15;;
10162;SDS011;5123;52.556;13.384;2023-08-21T15:02:30;3.63;;;1.40;;
10162;SDS011;5123;52.556;13.384;2023-08-21T15:05:03;1.50;;;1.33;;
10162;SDS011;5123;52.556;13.384;2023-08-21T15:07:38;4.82;;;1.40;;
10162;SDS011;5123;52.556;13.384;2023-08-21T15:10:11;3.63;;;1.50;;
10162;SDS011;5123;52.556;13.384;2023-08-21T15:12:44;1.70;;;0.90;;
10162;SDS011;5123;52.556;13.384;2023-08-21T15:15:17;2.03;;;1.20;;
10162;SDS011;5123;52.556;13.384;2023-08-21T15:17:57;1.58;;;1.10;;
10162;SDS011;5123;52.556;13.384;2023-08-21T15:20:30;2.33;;;1.25;;
10162;SDS011;5123;52.556;13.384;2023-08-21T15:23:03;2.47;;;1.50;;
10162;SDS011;5123;52.556;13.384;2023-08-21T15:25:44;3.08;;;1.55;;